sensor_id;sensor_type;location;lat;lon;timestamp;temperature;humidity
51950;DHT22;37974;53.218;6.640;2023-05-07T00:00:06;11.60;99.90
51950;DHT22;37974;53.218;6.640;2023-05-07T00:06:20;11.10;99.90
51950;DHT22;37974;53.218;6.640;2023-05-07T00:09:18;11.50;99.90
51950;DHT22;37974;53.218;6.640;2023-05-07T00:12:10;11.50;99.90
51950;DHT22;37974;53.218;6.640;2023-05-07T00:15:09;11.40;99.90
51950;DHT22;37974;53.218;6.640;2023-05-07T00:18:03;11.40;99.90
51950;DHT22;37974;53.218;6.640;2023-05-07T00:21:10;11.40;99.90
51950;DHT22;37974;53.218;6.640;2023-05-07T00:24:01;11.00;99.90
51950;DHT22;37974;53.218;6.640;2023-05-07T00:26:55;11.40;99.90
51950;DHT22;37974;53.218;6.640;2023-05-07T00:30:20;11.10;99.90
51950;DHT22;37974;53.218;6.640;2023-05-07T00:32:58;11.30;99.90
51950;DHT22;37974;53.218;6.640;2023-05-07T00:36:13;11.30;99.90
51950;DHT22;37974;53.218;6.640;2023-05-07T00:42:16;11.30;99.90
51950;DHT22;37974;53.218;6.640;2023-05-07T00:52:23;11.30;99.90
51950;DHT22;37974;53.218;6.640;2023-05-07T00:55:16;11.30;99.90
51950;DHT22;37974;53.218;6.640;2023-05-07T00:58:53;11.30;99.90
51950;DHT22;37974;53.218;6.640;2023-05-07T01:01:51;11.40;99.90
51950;DHT22;37974;53.218;6.640;2023-05-07T01:05:05;11.30;99.90
51950;DHT22;37974;53.218;6.640;2023-05-07T01:08:37;11.30;99.90
51950;DHT22;37974;53.218;6.640;2023-05-07T01:11:10;11.30;99.90
51950;DHT22;37974;53.218;6.640;2023-05-07T01:14:37;11.30;99.90
51950;DHT22;37974;53.218;6.640;2023-05-07T01:17:27;11.30;99.90
51950;DHT22;37974;53.218;6.640;2023-05-07T01:20:41;11.40;99.90
51950;DHT22;37974;53.218;6.640;2023-05-07T01:23:19;11.60;99.90
51950;DHT22;37974;53.218;6.640;2023-05-07T01:26:35;11.40;99.90
51950;DHT22;37974;53.218;6.640;2023-05-07T01:29:32;11.10;99.90
51950;DHT22;37974;53.218;6.640;2023-05-07T01:32:15;11.30;99.90
51950;DHT22;37974;53.218;6.640;2023-05-07T01:35:46;11.10;99.90
51950;DHT22;37974;53.218;6.640;2023-05-07T01:41:48;11.30;99.90
51950;DHT22;37974;53.218;6.640;2023-05-07T01:44:36;11.30;99.90
51950;DHT22;37974;53.218;6.640;2023-05-07T01:51:12;11.30;99.90
51950;DHT22;37974;53.218;6.640;2023-05-07T01:54:09;10.90;99.90
51950;DHT22;37974;53.218;6.640;2023-05-07T01:57:04;11.20;99.90
51950;DHT22;37974;53.218;6.640;2023-05-07T02:06:52;11.20;99.90
51950;DHT22;37974;53.218;6.640;2023-05-07T02:10:20;11.20;99.90
51950;DHT22;37974;53.218;6.640;2023-05-07T02:13:20;11.20;99.90
51950;DHT22;37974;53.218;6.640;2023-05-07T02:19:07;11.20;99.90
51950;DHT22;37974;53.218;6.640;2023-05-07T02:22:17;11.20;99.90
51950;DHT22;37974;53.218;6.640;2023-05-07T02:28:32;11.20;99.90
51950;DHT22;37974;53.218;6.640;2023-05-07T02:31:42;11.10;99.90
51950;DHT22;37974;53.218;6.640;2023-05-07T02:38:40;10.90;99.90
51950;DHT22;37974;53.218;6.640;2023-05-07T02:41:59;11.10;99.90
51950;DHT22;37974;53.218;6.640;2023-05-07T02:48:54;11.40;99.90
51950;DHT22;37974;53.218;6.640;2023-05-07T02:59:19;11.10;99.90
51950;DHT22;37974;53.218;6.640;2023-05-07T03:02:05;11.60;99.90
51950;DHT22;37974;53.218;6.640;2023-05-07T03:05:10;11.00;99.90
51950;DHT22;37974;53.218;6.640;2023-05-07T03:08:51;11.00;99.90
51950;DHT22;37974;53.218;6.640;2023-05-07T03:11:57;11.00;99.90
51950;DHT22;37974;53.218;6.640;2023-05-07T03:18:02;10.90;99.90
51950;DHT22;37974;53.218;6.640;2023-05-07T03:24:20;11.00;99.90
51950;DHT22;37974;53.218;6.640;2023-05-07T03:36:08;11.00;99.90
51950;DHT22;37974;53.218;6.640;2023-05-07T03:39:00;10.90;99.90
51950;DHT22;37974;53.218;6.640;2023-05-07T03:42:07;10.90;99.90
51950;DHT22;37974;53.218;6.640;2023-05-07T03:45:16;10.90;99.90
51950;DHT22;37974;53.218;6.640;2023-05-07T03:50:55;10.90;99.90
51950;DHT22;37974;53.218;6.640;2023-05-07T03:57:00;10.80;99.90
51950;DHT22;37974;53.218;6.640;2023-05-07T04:00:22;10.60;99.90
51950;DHT22;37974;53.218;6.640;2023-05-07T04:06:37;10.70;99.90
51950;DHT22;37974;53.218;6.640;2023-05-07T04:10:09;10.70;99.90
51950;DHT22;37974;53.218;6.640;2023-05-07T04:12:53;10.80;99.90
51950;DHT22;37974;53.218;6.640;2023-05-07T04:15:49;10.70;99.90
51950;DHT22;37974;53.218;6.640;2023-05-07T04:18:52;10.40;99.90
51950;DHT22;37974;53.218;6.640;2023-05-07T04:21:50;10.70;99.90
51950;DHT22;37974;53.218;6.640;2023-05-07T04:25:48;11.20;99.90
51950;DHT22;37974;53.218;6.640;2023-05-07T04:28:14;10.70;99.90
51950;DHT22;37974;53.218;6.640;2023-05-07T04:31:04;10.70;99.90
51950;DHT22;37974;53.218;6.640;2023-05-07T04:37:25;10.70;99.90
51950;DHT22;37974;53.218;6.640;2023-05-07T04:43:50;10.60;99.90
51950;DHT22;37974;53.218;6.640;2023-05-07T04:47:28;10.50;99.90
51950;DHT22;37974;53.218;6.640;2023-05-07T04:50:36;10.60;99.90
51950;DHT22;37974;53.218;6.640;2023-05-07T04:57:26;10.70;99.90
51950;DHT22;37974;53.218;6.640;2023-05-07T05:04:20;11.40;99.90
51950;DHT22;37974;53.218;6.640;2023-05-07T05:17:00;10.70;99.90
51950;DHT22;37974;53.218;6.640;2023-05-07T05:23:03;10.70;99.90
51950;DHT22;37974;53.218;6.640;2023-05-07T05:32:58;10.70;99.90
51950;DHT22;37974;53.218;6.640;2023-05-07T05:35:46;10.70;99.90
51950;DHT22;37974;53.218;6.640;2023-05-07T05:38:47;10.70;99.90
51950;DHT22;37974;53.218;6.640;2023-05-07T05:41:39;10.80;99.90
51950;DHT22;37974;53.218;6.640;2023-05-07T05:44:10;10.80;99.90
51950;DHT22;37974;53.218;6.640;2023-05-07T05:47:39;10.50;99.90
51950;DHT22;37974;53.218;6.640;2023-05-07T05:50:20;10.80;99.90
51950;DHT22;37974;53.218;6.640;2023-05-07T05:52:49;10.80;99.90
51950;DHT22;37974;53.218;6.640;2023-05-07T05:55:15;10.80;99.90
51950;DHT22;37974;53.218;6.640;2023-05-07T05:57:43;10.80;99.90
51950;DHT22;37974;53.218;6.640;2023-05-07T06:00:59;10.20;99.90
51950;DHT22;37974;53.218;6.640;2023-05-07T06:03:46;11.00;99.90
51950;DHT22;37974;53.218;6.640;2023-05-07T06:06:12;10.80;99.90
51950;DHT22;37974;53.218;6.640;2023-05-07T06:08:40;10.80;99.90
51950;DHT22;37974;53.218;6.640;2023-05-07T06:11:54;10.70;99.90
51950;DHT22;37974;53.218;6.640;2023-05-07T06:13:58;10.80;99.90
51950;DHT22;37974;53.218;6.640;2023-05-07T06:20:02;10.80;99.90
51950;DHT22;37974;53.218;6.640;2023-05-07T06:22:31;10.90;99.90
51950;DHT22;37974;53.218;6.640;2023-05-07T06:25:02;10.90;99.90
51950;DHT22;37974;53.218;6.640;2023-05-07T06:27:48;10.90;99.90
51950;DHT22;37974;53.218;6.640;2023-05-07T06:30:35;11.00;99.90
51950;DHT22;37974;53.218;6.640;2023-05-07T06:33:02;11.00;99.90
51950;DHT22;37974;53.218;6.640;2023-05-07T06:35:28;11.00;99.90
51950;DHT22;37974;53.218;6.640;2023-05-07T06:37:54;11.10;99.90
51950;DHT22;37974;53.218;6.640;2023-05-07T06:40:20;11.10;99.90
51950;DHT22;37974;53.218;6.640;2023-05-07T06:42:45;11.10;99.90
51950;DHT22;37974;53.218;6.640;2023-05-07T06:48:04;11.20;99.90
51950;DHT22;37974;53.218;6.640;2023-05-07T06:50:30;11.20;99.90
51950;DHT22;37974;53.218;6.640;2023-05-07T06:52:58;11.30;99.90
51950;DHT22;37974;53.218;6.640;2023-05-07T06:55:24;11.20;99.90
51950;DHT22;37974;53.218;6.640;2023-05-07T06:57:50;11.30;99.90
51950;DHT22;37974;53.218;6.640;2023-05-07T07:00:19;11.40;99.90
51950;DHT22;37974;53.218;6.640;2023-05-07T07:02:47;11.50;99.90
51950;DHT22;37974;53.218;6.640;2023-05-07T07:05:13;11.50;99.90
51950;DHT22;37974;53.218;6.640;2023-05-07T07:07:39;11.60;99.90
51950;DHT22;37974;53.218;6.640;2023-05-07T07:10:05;11.60;99.90
51950;DHT22;37974;53.218;6.640;2023-05-07T07:12:31;11.50;99.90
51950;DHT22;37974;53.218;6.640;2023-05-07T07:14:57;11.60;99.90
51950;DHT22;37974;53.218;6.640;2023-05-07T07:17:22;11.50;99.90
51950;DHT22;37974;53.218;6.640;2023-05-07T07:19:48;11.60;99.90
51950;DHT22;37974;53.218;6.640;2023-05-07T07:22:14;11.50;99.90
51950;DHT22;37974;53.218;6.640;2023-05-07T07:24:40;11.40;99.90
51950;DHT22;37974;53.218;6.640;2023-05-07T07:27:05;11.50;99.90
51950;DHT22;37974;53.218;6.640;2023-05-07T07:29:31;11.40;99.90
51950;DHT22;37974;53.218;6.640;2023-05-07T07:31:57;11.50;99.90
51950;DHT22;37974;53.218;6.640;2023-05-07T07:34:23;11.40;99.90
51950;DHT22;37974;53.218;6.640;2023-05-07T07:36:48;11.40;99.90
51950;DHT22;37974;53.218;6.640;2023-05-07T07:39:14;11.50;99.90
51950;DHT22;37974;53.218;6.640;2023-05-07T07:41:41;11.40;99.90
51950;DHT22;37974;53.218;6.640;2023-05-07T07:44:06;11.40;99.90
51950;DHT22;37974;53.218;6.640;2023-05-07T07:46:33;11.40;99.90
51950;DHT22;37974;53.218;6.640;2023-05-07T07:49:07;11.50;99.90
51950;DHT22;37974;53.218;6.640;2023-05-07T07:51:33;11.50;99.90
51950;DHT22;37974;53.218;6.640;2023-05-07T07:53:59;11.50;99.90
51950;DHT22;37974;53.218;6.640;2023-05-07T07:56:24;11.60;99.90
51950;DHT22;37974;53.218;6.640;2023-05-07T07:58:51;11.60;99.90
51950;DHT22;37974;53.218;6.640;2023-05-07T08:01:30;11.40;99.90
51950;DHT22;37974;53.218;6.640;2023-05-07T08:03:58;11.30;99.90
51950;DHT22;37974;53.218;6.640;2023-05-07T08:06:29;11.80;99.90
51950;DHT22;37974;53.218;6.640;2023-05-07T08:09:06;11.80;99.90
51950;DHT22;37974;53.218;6.640;2023-05-07T08:11:32;12.00;99.90
51950;DHT22;37974;53.218;6.640;2023-05-07T08:13:57;12.00;99.90
51950;DHT22;37974;53.218;6.640;2023-05-07T08:16:23;12.10;99.90
51950;DHT22;37974;53.218;6.640;2023-05-07T08:18:49;12.30;99.90
51950;DHT22;37974;53.218;6.640;2023-05-07T08:21:15;12.40;99.90
51950;DHT22;37974;53.218;6.640;2023-05-07T08:23:54;12.50;99.90
51950;DHT22;37974;53.218;6.640;2023-05-07T08:26:20;12.60;99.90
51950;DHT22;37974;53.218;6.640;2023-05-07T08:28:46;12.70;99.90
51950;DHT22;37974;53.218;6.640;2023-05-07T08:31:14;12.70;99.90
51950;DHT22;37974;53.218;6.640;2023-05-07T08:33:51;12.80;99.90
51950;DHT22;37974;53.218;6.640;2023-05-07T08:36:31;12.80;99.90
51950;DHT22;37974;53.218;6.640;2023-05-07T08:40:03;12.90;99.90
51950;DHT22;37974;53.218;6.640;2023-05-07T08:42:24;13.00;99.90
51950;DHT22;37974;53.218;6.640;2023-05-07T08:45:00;13.00;99.90
51950;DHT22;37974;53.218;6.640;2023-05-07T08:47:34;12.90;99.90
51950;DHT22;37974;53.218;6.640;2023-05-07T08:50:01;13.00;99.90
51950;DHT22;37974;53.218;6.640;2023-05-07T08:52:45;13.00;99.90
51950;DHT22;37974;53.218;6.640;2023-05-07T08:55:22;13.10;99.90
51950;DHT22;37974;53.218;6.640;2023-05-07T08:57:48;13.20;99.90
51950;DHT22;37974;53.218;6.640;2023-05-07T09:00:14;13.30;99.90
51950;DHT22;37974;53.218;6.640;2023-05-07T09:02:40;13.30;99.90
51950;DHT22;37974;53.218;6.640;2023-05-07T09:08:43;13.40;99.90
51950;DHT22;37974;53.218;6.640;2023-05-07T09:14:30;13.60;99.90
51950;DHT22;37974;53.218;6.640;2023-05-07T09:20:49;13.60;99.90
51950;DHT22;37974;53.218;6.640;2023-05-07T09:23:37;13.80;99.90
51950;DHT22;37974;53.218;6.640;2023-05-07T09:29:01;14.10;99.90
51950;DHT22;37974;53.218;6.640;2023-05-07T09:31:26;14.20;99.90
51950;DHT22;37974;53.218;6.640;2023-05-07T09:33:53;14.30;99.90
51950;DHT22;37974;53.218;6.640;2023-05-07T09:36:55;14.40;99.90
51950;DHT22;37974;53.218;6.640;2023-05-07T09:39:23;14.50;99.90
51950;DHT22;37974;53.218;6.640;2023-05-07T09:41:49;14.50;99.90
51950;DHT22;37974;53.218;6.640;2023-05-07T09:44:26;14.60;99.90
51950;DHT22;37974;53.218;6.640;2023-05-07T09:47:11;14.70;99.90
51950;DHT22;37974;53.218;6.640;2023-05-07T09:49:48;14.80;99.90
51950;DHT22;37974;53.218;6.640;2023-05-07T09:52:39;15.00;99.90
51950;DHT22;37974;53.218;6.640;2023-05-07T09:55:10;15.10;99.90
51950;DHT22;37974;53.218;6.640;2023-05-07T09:58:12;15.20;99.90
51950;DHT22;37974;53.218;6.640;2023-05-07T10:01:07;15.30;99.90
51950;DHT22;37974;53.218;6.640;2023-05-07T10:03:33;15.20;99.90
51950;DHT22;37974;53.218;6.640;2023-05-07T10:06:01;15.20;99.90
51950;DHT22;37974;53.218;6.640;2023-05-07T10:08:30;15.10;99.90
51950;DHT22;37974;53.218;6.640;2023-05-07T10:10:56;15.10;99.90
51950;DHT22;37974;53.218;6.640;2023-05-07T10:13:22;15.20;99.90
51950;DHT22;37974;53.218;6.640;2023-05-07T10:15:48;15.50;99.90
51950;DHT22;37974;53.218;6.640;2023-05-07T10:18:15;15.70;99.90
51950;DHT22;37974;53.218;6.640;2023-05-07T10:20:45;15.90;99.90
51950;DHT22;37974;53.218;6.640;2023-05-07T10:24:04;15.90;99.90
51950;DHT22;37974;53.218;6.640;2023-05-07T10:26:09;15.80;99.90
51950;DHT22;37974;53.218;6.640;2023-05-07T10:28:41;15.80;99.90
51950;DHT22;37974;53.218;6.640;2023-05-07T10:41:15;15.80;99.90
51950;DHT22;37974;53.218;6.640;2023-05-07T10:48:30;15.90;99.90
51950;DHT22;37974;53.218;6.640;2023-05-07T10:51:37;15.90;99.90
51950;DHT22;37974;53.218;6.640;2023-05-07T11:17:07;16.30;99.90
51950;DHT22;37974;53.218;6.640;2023-05-07T11:35:50;17.10;99.90
51950;DHT22;37974;53.218;6.640;2023-05-07T11:50:09;17.70;99.90
51950;DHT22;37974;53.218;6.640;2023-05-07T11:53:13;18.20;99.90
51950;DHT22;37974;53.218;6.640;2023-05-07T11:56:23;18.20;99.90
51950;DHT22;37974;53.218;6.640;2023-05-07T11:58:59;18.30;99.90
51950;DHT22;37974;53.218;6.640;2023-05-07T12:08:24;18.20;99.90
51950;DHT22;37974;53.218;6.640;2023-05-07T12:11:45;18.50;99.90
51950;DHT22;37974;53.218;6.640;2023-05-07T12:14:11;18.40;99.90
51950;DHT22;37974;53.218;6.640;2023-05-07T12:16:38;18.30;99.90
51950;DHT22;37974;53.218;6.640;2023-05-07T12:19:05;18.40;99.90
51950;DHT22;37974;53.218;6.640;2023-05-07T12:21:36;18.50;99.90
51950;DHT22;37974;53.218;6.640;2023-05-07T12:24:15;18.70;99.90
51950;DHT22;37974;53.218;6.640;2023-05-07T12:32:21;19.00;99.90
51950;DHT22;37974;53.218;6.640;2023-05-07T12:34:50;18.90;99.90
51950;DHT22;37974;53.218;6.640;2023-05-07T12:37:23;18.90;99.90
51950;DHT22;37974;53.218;6.640;2023-05-07T12:40:38;18.90;99.90
51950;DHT22;37974;53.218;6.640;2023-05-07T12:43:44;18.90;99.90
51950;DHT22;37974;53.218;6.640;2023-05-07T12:46:38;18.90;99.90
51950;DHT22;37974;53.218;6.640;2023-05-07T12:52:19;18.70;99.90
51950;DHT22;37974;53.218;6.640;2023-05-07T12:56:27;18.90;99.90
51950;DHT22;37974;53.218;6.640;2023-05-07T12:58:48;18.90;99.90
51950;DHT22;37974;53.218;6.640;2023-05-07T13:02:07;18.80;99.90
51950;DHT22;37974;53.218;6.640;2023-05-07T13:19:15;19.00;99.90
51950;DHT22;37974;53.218;6.640;2023-05-07T13:22:21;19.10;99.90
51950;DHT22;37974;53.218;6.640;2023-05-07T13:28:58;19.00;99.90
51950;DHT22;37974;53.218;6.640;2023-05-07T13:35:29;19.10;99.90
51950;DHT22;37974;53.218;6.640;2023-05-07T13:39:00;19.20;99.90
51950;DHT22;37974;53.218;6.640;2023-05-07T13:45:48;19.20;99.90
51950;DHT22;37974;53.218;6.640;2023-05-07T13:56:30;19.20;99.90
51950;DHT22;37974;53.218;6.640;2023-05-07T14:00:08;19.20;99.90
51950;DHT22;37974;53.218;6.640;2023-05-07T14:02:48;19.50;99.90
51950;DHT22;37974;53.218;6.640;2023-05-07T14:21:33;19.50;99.90
51950;DHT22;37974;53.218;6.640;2023-05-07T14:44:50;20.80;99.90
51950;DHT22;37974;53.218;6.640;2023-05-07T14:47:31;20.90;99.90
51950;DHT22;37974;53.218;6.640;2023-05-07T14:57:10;21.10;99.90
51950;DHT22;37974;53.218;6.640;2023-05-07T15:02:39;21.00;99.90
51950;DHT22;37974;53.218;6.640;2023-05-07T15:05:05;20.80;99.90
51950;DHT22;37974;53.218;6.640;2023-05-07T15:07:32;20.70;99.90
51950;DHT22;37974;53.218;6.640;2023-05-07T15:20:26;20.30;99.90
51950;DHT22;37974;53.218;6.640;2023-05-07T15:46:43;20.20;99.90
51950;DHT22;37974;53.218;6.640;2023-05-07T15:49:37;20.10;99.90
51950;DHT22;37974;53.218;6.640;2023-05-07T16:06:38;20.70;99.90
51950;DHT22;37974;53.218;6.640;2023-05-07T16:09:59;21.00;99.90
51950;DHT22;37974;53.218;6.640;2023-05-07T16:12:50;21.20;99.90
51950;DHT22;37974;53.218;6.640;2023-05-07T16:15:46;21.50;99.90
51950;DHT22;37974;53.218;6.640;2023-05-07T16:18:13;21.80;99.90
51950;DHT22;37974;53.218;6.640;2023-05-07T16:20:56;22.10;99.90
51950;DHT22;37974;53.218;6.640;2023-05-07T16:23:25;22.40;99.90
51950;DHT22;37974;53.218;6.640;2023-05-07T16:26:17;22.70;99.90
51950;DHT22;37974;53.218;6.640;2023-05-07T16:28:42;23.10;99.90
51950;DHT22;37974;53.218;6.640;2023-05-07T16:31:08;23.20;99.90
51950;DHT22;37974;53.218;6.640;2023-05-07T16:33:34;23.40;99.90
51950;DHT22;37974;53.218;6.640;2023-05-07T16:36:00;23.40;99.90
51950;DHT22;37974;53.218;6.640;2023-05-07T16:38:39;23.20;99.90
51950;DHT22;37974;53.218;6.640;2023-05-07T16:41:05;23.00;99.90
51950;DHT22;37974;53.218;6.640;2023-05-07T16:43:31;22.70;99.90
51950;DHT22;37974;53.218;6.640;2023-05-07T16:45:56;22.40;99.90
51950;DHT22;37974;53.218;6.640;2023-05-07T16:48:22;22.20;99.90
51950;DHT22;37974;53.218;6.640;2023-05-07T16:50:48;22.00;99.90
51950;DHT22;37974;53.218;6.640;2023-05-07T16:53:32;21.70;99.90
51950;DHT22;37974;53.218;6.640;2023-05-07T16:55:58;21.30;99.90
51950;DHT22;37974;53.218;6.640;2023-05-07T16:58:23;20.90;99.90
51950;DHT22;37974;53.218;6.640;2023-05-07T17:00:49;20.70;99.90
51950;DHT22;37974;53.218;6.640;2023-05-07T17:03:18;20.40;99.90
51950;DHT22;37974;53.218;6.640;2023-05-07T17:05:46;20.30;99.90
51950;DHT22;37974;53.218;6.640;2023-05-07T17:08:12;20.20;99.90
51950;DHT22;37974;53.218;6.640;2023-05-07T17:10:38;20.10;99.90
51950;DHT22;37974;53.218;6.640;2023-05-07T17:13:04;20.10;99.90
51950;DHT22;37974;53.218;6.640;2023-05-07T17:15:30;20.00;99.90
51950;DHT22;37974;53.218;6.640;2023-05-07T17:17:56;20.10;99.90
51950;DHT22;37974;53.218;6.640;2023-05-07T17:20:22;20.20;99.90
51950;DHT22;37974;53.218;6.640;2023-05-07T17:22:48;20.40;99.90
51950;DHT22;37974;53.218;6.640;2023-05-07T17:25:13;20.80;99.90
51950;DHT22;37974;53.218;6.640;2023-05-07T17:27:39;21.10;99.90
51950;DHT22;37974;53.218;6.640;2023-05-07T17:30:05;21.20;99.90
51950;DHT22;37974;53.218;6.640;2023-05-07T17:32:34;21.20;99.90
51950;DHT22;37974;53.218;6.640;2023-05-07T17:35:00;20.90;99.90
51950;DHT22;37974;53.218;6.640;2023-05-07T17:37:26;20.70;99.90
51950;DHT22;37974;53.218;6.640;2023-05-07T17:39:52;20.60;99.90
51950;DHT22;37974;53.218;6.640;2023-05-07T17:42:18;20.40;99.90
51950;DHT22;37974;53.218;6.640;2023-05-07T17:44:44;20.10;99.90
51950;DHT22;37974;53.218;6.640;2023-05-07T17:47:10;19.90;99.90
51950;DHT22;37974;53.218;6.640;2023-05-07T17:49:38;19.80;99.90
51950;DHT22;37974;53.218;6.640;2023-05-07T17:52:04;19.60;99.90
51950;DHT22;37974;53.218;6.640;2023-05-07T17:54:30;19.80;99.90
51950;DHT22;37974;53.218;6.640;2023-05-07T17:56:56;20.10;99.90
51950;DHT22;37974;53.218;6.640;2023-05-07T17:59:21;20.40;99.90
51950;DHT22;37974;53.218;6.640;2023-05-07T18:01:47;20.70;99.90
51950;DHT22;37974;53.218;6.640;2023-05-07T18:04:13;20.90;99.90
51950;DHT22;37974;53.218;6.640;2023-05-07T18:06:39;20.80;99.90
51950;DHT22;37974;53.218;6.640;2023-05-07T18:09:11;20.60;99.90
51950;DHT22;37974;53.218;6.640;2023-05-07T18:11:37;20.20;99.90
51950;DHT22;37974;53.218;6.640;2023-05-07T18:14:03;19.80;99.90
51950;DHT22;37974;53.218;6.640;2023-05-07T18:16:29;19.40;99.90
51950;DHT22;37974;53.218;6.640;2023-05-07T18:18:55;19.10;99.90
51950;DHT22;37974;53.218;6.640;2023-05-07T18:21:21;18.80;99.90
51950;DHT22;37974;53.218;6.640;2023-05-07T18:23:47;18.50;99.90
51950;DHT22;37974;53.218;6.640;2023-05-07T18:26:40;18.30;99.90
51950;DHT22;37974;53.218;6.640;2023-05-07T18:29:31;18.20;99.90
51950;DHT22;37974;53.218;6.640;2023-05-07T18:32:11;17.80;99.90
51950;DHT22;37974;53.218;6.640;2023-05-07T18:38:02;17.20;99.90
51950;DHT22;37974;53.218;6.640;2023-05-07T18:46:48;17.00;99.90
51950;DHT22;37974;53.218;6.640;2023-05-07T18:49:38;16.90;99.90
51950;DHT22;37974;53.218;6.640;2023-05-07T18:52:04;16.80;99.90
51950;DHT22;37974;53.218;6.640;2023-05-07T18:57:36;16.60;99.90
51950;DHT22;37974;53.218;6.640;2023-05-07T19:03:27;16.40;99.90
51950;DHT22;37974;53.218;6.640;2023-05-07T19:09:27;16.10;99.90
51950;DHT22;37974;53.218;6.640;2023-05-07T19:19:00;15.70;99.90
51950;DHT22;37974;53.218;6.640;2023-05-07T19:22:18;15.70;99.90
51950;DHT22;37974;53.218;6.640;2023-05-07T19:28:13;15.40;99.90
51950;DHT22;37974;53.218;6.640;2023-05-07T19:30:46;15.40;99.90
51950;DHT22;37974;53.218;6.640;2023-05-07T19:33:27;15.30;99.90
51950;DHT22;37974;53.218;6.640;2023-05-07T19:36:30;15.30;99.90
51950;DHT22;37974;53.218;6.640;2023-05-07T19:39:57;15.20;99.90
51950;DHT22;37974;53.218;6.640;2023-05-07T19:43:20;15.10;99.90
51950;DHT22;37974;53.218;6.640;2023-05-07T19:51:08;14.90;99.90
51950;DHT22;37974;53.218;6.640;2023-05-07T19:54:01;14.70;99.90
51950;DHT22;37974;53.218;6.640;2023-05-07T19:59:56;14.60;99.90
51950;DHT22;37974;53.218;6.640;2023-05-07T20:02:24;14.50;99.90
51950;DHT22;37974;53.218;6.640;2023-05-07T20:04:52;14.40;99.90
51950;DHT22;37974;53.218;6.640;2023-05-07T20:07:26;14.40;99.90
51950;DHT22;37974;53.218;6.640;2023-05-07T20:09:53;14.30;99.90
51950;DHT22;37974;53.218;6.640;2023-05-07T20:12:20;14.40;99.90
51950;DHT22;37974;53.218;6.640;2023-05-07T20:14:47;14.20;99.90
51950;DHT22;37974;53.218;6.640;2023-05-07T20:17:14;14.20;99.90
51950;DHT22;37974;53.218;6.640;2023-05-07T20:19:43;14.20;99.90
51950;DHT22;37974;53.218;6.640;2023-05-07T20:22:09;14.00;99.90
51950;DHT22;37974;53.218;6.640;2023-05-07T20:24:37;13.10;99.90
51950;DHT22;37974;53.218;6.640;2023-05-07T20:27:04;13.90;99.90
51950;DHT22;37974;53.218;6.640;2023-05-07T20:29:32;13.60;99.90
51950;DHT22;37974;53.218;6.640;2023-05-07T20:31:58;13.80;99.90
51950;DHT22;37974;53.218;6.640;2023-05-07T20:34:23;13.80;99.90
51950;DHT22;37974;53.218;6.640;2023-05-07T20:36:49;13.70;99.90
51950;DHT22;37974;53.218;6.640;2023-05-07T20:39:15;13.70;99.90
51950;DHT22;37974;53.218;6.640;2023-05-07T20:41:42;13.60;99.90
51950;DHT22;37974;53.218;6.640;2023-05-07T20:44:09;13.60;99.90
51950;DHT22;37974;53.218;6.640;2023-05-07T20:46:38;13.50;99.90
51950;DHT22;37974;53.218;6.640;2023-05-07T20:49:04;13.50;99.90
51950;DHT22;37974;53.218;6.640;2023-05-07T20:51:30;13.40;99.90
51950;DHT22;37974;53.218;6.640;2023-05-07T20:53:56;13.40;99.90
51950;DHT22;37974;53.218;6.640;2023-05-07T20:56:21;13.40;99.90
51950;DHT22;37974;53.218;6.640;2023-05-07T20:58:47;13.30;99.90
51950;DHT22;37974;53.218;6.640;2023-05-07T21:01:13;13.30;99.90
51950;DHT22;37974;53.218;6.640;2023-05-07T21:03:39;13.20;99.90
51950;DHT22;37974;53.218;6.640;2023-05-07T21:06:05;13.30;99.90
51950;DHT22;37974;53.218;6.640;2023-05-07T21:08:31;13.20;99.90
51950;DHT22;37974;53.218;6.640;2023-05-07T21:10:57;13.20;99.90
51950;DHT22;37974;53.218;6.640;2023-05-07T21:13:23;13.20;99.90
51950;DHT22;37974;53.218;6.640;2023-05-07T21:15:49;13.10;99.90
51950;DHT22;37974;53.218;6.640;2023-05-07T21:18:16;13.10;99.90
51950;DHT22;37974;53.218;6.640;2023-05-07T21:20:42;13.10;99.90
51950;DHT22;37974;53.218;6.640;2023-05-07T21:23:08;13.10;99.90
51950;DHT22;37974;53.218;6.640;2023-05-07T21:25:48;13.10;99.90
51950;DHT22;37974;53.218;6.640;2023-05-07T21:28:17;13.10;99.90
51950;DHT22;37974;53.218;6.640;2023-05-07T21:30:43;13.00;99.90
51950;DHT22;37974;53.218;6.640;2023-05-07T21:33:08;13.00;99.90
51950;DHT22;37974;53.218;6.640;2023-05-07T21:35:35;13.00;99.90
51950;DHT22;37974;53.218;6.640;2023-05-07T21:38:01;13.00;99.90
51950;DHT22;37974;53.218;6.640;2023-05-07T21:40:27;12.90;99.90
51950;DHT22;37974;53.218;6.640;2023-05-07T21:42:53;12.90;99.90
51950;DHT22;37974;53.218;6.640;2023-05-07T21:45:19;12.90;99.90
51950;DHT22;37974;53.218;6.640;2023-05-07T21:47:45;12.80;99.90
51950;DHT22;37974;53.218;6.640;2023-05-07T21:50:11;12.80;99.90
51950;DHT22;37974;53.218;6.640;2023-05-07T21:52:37;12.80;99.90
51950;DHT22;37974;53.218;6.640;2023-05-07T21:55:03;12.80;99.90
51950;DHT22;37974;53.218;6.640;2023-05-07T21:57:29;12.70;99.90
51950;DHT22;37974;53.218;6.640;2023-05-07T21:59:55;12.60;99.90
51950;DHT22;37974;53.218;6.640;2023-05-07T22:02:20;12.60;99.90
51950;DHT22;37974;53.218;6.640;2023-05-07T22:04:47;12.60;99.90
51950;DHT22;37974;53.218;6.640;2023-05-07T22:07:13;12.60;99.90
51950;DHT22;37974;53.218;6.640;2023-05-07T22:09:39;12.50;99.90
51950;DHT22;37974;53.218;6.640;2023-05-07T22:12:05;12.50;99.90
51950;DHT22;37974;53.218;6.640;2023-05-07T22:14:31;12.50;99.90
51950;DHT22;37974;53.218;6.640;2023-05-07T22:16:57;12.40;99.90
51950;DHT22;37974;53.218;6.640;2023-05-07T22:19:22;12.40;99.90
51950;DHT22;37974;53.218;6.640;2023-05-07T22:21:48;12.40;99.90
51950;DHT22;37974;53.218;6.640;2023-05-07T22:24:14;12.30;99.90
51950;DHT22;37974;53.218;6.640;2023-05-07T22:26:49;12.30;99.90
51950;DHT22;37974;53.218;6.640;2023-05-07T22:29:14;12.30;99.90
51950;DHT22;37974;53.218;6.640;2023-05-07T22:31:40;12.30;99.90
51950;DHT22;37974;53.218;6.640;2023-05-07T22:34:06;12.30;99.90
51950;DHT22;37974;53.218;6.640;2023-05-07T22:36:31;12.30;99.90
51950;DHT22;37974;53.218;6.640;2023-05-07T22:38:57;12.30;99.90
51950;DHT22;37974;53.218;6.640;2023-05-07T22:41:23;12.30;99.90
51950;DHT22;37974;53.218;6.640;2023-05-07T22:43:49;12.30;99.90
51950;DHT22;37974;53.218;6.640;2023-05-07T22:46:15;12.30;99.90
51950;DHT22;37974;53.218;6.640;2023-05-07T22:48:40;12.30;99.90
51950;DHT22;37974;53.218;6.640;2023-05-07T22:51:11;12.30;99.90
51950;DHT22;37974;53.218;6.640;2023-05-07T22:53:38;12.30;99.90
51950;DHT22;37974;53.218;6.640;2023-05-07T22:56:05;12.30;99.90
51950;DHT22;37974;53.218;6.640;2023-05-07T22:58:32;12.30;99.90
51950;DHT22;37974;53.218;6.640;2023-05-07T23:00:58;12.30;99.90